Terminal Aerodrome Forecast
Issued by NWS Albany, NY

Home | Current Version | Previous Version | Text Only | Print | Product List | Glossary On
Versions: 1 2 3 4 5 6 7 8 9 10 11 12 13 14 15 16 17 18 19 20 21 22 23 24
000
FTUS41 KALY 251136
TAFGFL
TAF
KGFL 251136Z 2512/2612 18007KT P6SM VCSH OVC100
      TEMPO 2512/2516 5SM -SHRA BKN050
     FM251600 18007KT P6SM VCSH SCT050 OVC080
     FM251900 18008KT P6SM VCSH SCT045 OVC080
     FM252200 19009KT 5SM -SHRA BR SCT030 OVC045
     FM260400 20005KT 5SM BR VCSH SCT015 OVC030=

USA.gov is the U.S. government's official web portal to all federal, state and local government web resources and services.